createdAt,value
2023-02-04T00:00:22.332Z,302
2023-02-04T00:00:54.188Z,298
2023-02-04T00:01:25.211Z,295
2023-02-04T00:01:58.062Z,310
2023-02-04T00:02:29.402Z,314
2023-02-04T00:03:02.135Z,310
2023-02-04T00:03:33.168Z,310
2023-02-04T00:04:06.118Z,295
2023-02-04T00:04:37.436Z,310
2023-02-04T00:05:10.035Z,296
2023-02-04T00:05:41.260Z,296
2023-02-04T00:06:14.111Z,302
2023-02-04T00:06:45.065Z,296
2023-02-04T00:07:18.040Z,294
2023-02-04T00:07:49.509Z,294
2023-02-04T00:08:22.017Z,294
2023-02-04T00:08:53.130Z,294
2023-02-04T00:09:25.985Z,290
2023-02-04T00:09:57.217Z,294
2023-02-04T00:10:30.701Z,294
2023-02-04T00:11:01.182Z,264
2023-02-04T00:11:33.952Z,264
2023-02-04T00:12:05.211Z,264
2023-02-04T00:12:38.118Z,264
2023-02-04T00:13:09.391Z,264
2023-02-04T00:13:42.065Z,265
2023-02-04T00:14:13.275Z,265
2023-02-04T00:14:45.946Z,307
2023-02-04T00:15:18.194Z,307
2023-02-04T00:15:50.215Z,256
2023-02-04T00:16:21.267Z,256
2023-02-04T00:16:53.911Z,256
2023-02-04T00:17:25.329Z,319
2023-02-04T00:17:57.962Z,256
2023-02-04T00:18:29.217Z,307
2023-02-04T00:19:02.080Z,256
2023-02-04T00:19:33.341Z,310
2023-02-04T00:20:06.179Z,310
2023-02-04T00:20:37.238Z,281
2023-02-04T00:21:10.108Z,302
2023-02-04T00:21:41.123Z,302
2023-02-04T00:22:14.202Z,281
2023-02-04T00:22:45.252Z,264
2023-02-04T00:23:17.916Z,281
2023-02-04T00:23:49.205Z,271
2023-02-04T00:24:22.104Z,281
2023-02-04T00:24:53.275Z,286
2023-02-04T00:25:26.321Z,289
2023-02-04T00:25:57.322Z,281
2023-02-04T00:26:29.987Z,289
2023-02-04T00:27:01.080Z,289
2023-02-04T00:27:33.997Z,281
2023-02-04T00:28:05.262Z,289
2023-02-04T00:28:38.129Z,265
2023-02-04T00:29:09.165Z,289
2023-02-04T00:29:42.260Z,289
2023-02-04T00:30:14.128Z,289
2023-02-04T00:30:46.200Z,292
2023-02-04T00:31:17.326Z,292
2023-02-04T00:31:50.206Z,277
2023-02-04T00:32:21.314Z,277
2023-02-04T00:32:54.131Z,277
2023-02-04T00:33:25.198Z,277
2023-02-04T00:33:58.088Z,277
2023-02-04T00:34:29.155Z,277
2023-02-04T00:35:02.468Z,277
2023-02-04T00:35:33.248Z,277
2023-02-04T00:36:06.277Z,277
2023-02-04T00:36:37.217Z,277
2023-02-04T00:37:09.924Z,292
2023-02-04T00:37:41.296Z,290
2023-02-04T00:38:14.160Z,318
2023-02-04T00:38:45.246Z,318
2023-02-04T00:39:18.033Z,327
2023-02-04T00:39:49.356Z,327
2023-02-04T00:40:22.195Z,327
2023-02-04T00:40:53.334Z,248
2023-02-04T00:41:26.192Z,280
2023-02-04T00:41:57.109Z,272
2023-02-04T00:42:30.014Z,321
2023-02-04T00:43:01.381Z,321
2023-02-04T00:43:34.041Z,321
2023-02-04T00:44:05.338Z,321
2023-02-04T00:44:38.249Z,315
2023-02-04T00:45:10.271Z,315
2023-02-04T00:45:42.163Z,315
2023-02-04T00:46:13.307Z,315
2023-02-04T00:46:46.085Z,249
2023-02-04T00:47:17.125Z,274
2023-02-04T00:47:50.088Z,277
2023-02-04T00:48:21.224Z,281
2023-02-04T00:48:54.095Z,281
2023-02-04T00:49:25.149Z,281
2023-02-04T00:49:58.095Z,281
2023-02-04T00:50:29.948Z,282
2023-02-04T00:51:01.967Z,282
2023-02-04T00:51:33.299Z,282
2023-02-04T00:52:06.314Z,282
2023-02-04T00:52:37.216Z,282
2023-02-04T00:53:09.990Z,282
2023-02-04T00:53:41.311Z,282
2023-02-04T00:54:14.017Z,282
2023-02-04T00:54:45.097Z,282
2023-02-04T00:55:18.358Z,282
2023-02-04T00:55:49.206Z,282
2023-02-04T00:56:21.952Z,282
2023-02-04T00:56:53.289Z,282
2023-02-04T00:57:26.183Z,282
2023-02-04T00:57:57.280Z,279
2023-02-04T00:58:29.962Z,282
2023-02-04T00:59:01.221Z,279
2023-02-04T00:59:34.074Z,286
2023-02-04T01:00:06.612Z,286
2023-02-04T01:00:38.491Z,293
2023-02-04T01:01:09.340Z,310
2023-02-04T01:01:42.079Z,310
2023-02-04T01:02:12.928Z,310
2023-02-04T01:02:46.251Z,310
2023-02-04T01:03:17.257Z,310
2023-02-04T01:03:50.019Z,303
2023-02-04T01:04:21.168Z,303
2023-02-04T01:04:53.981Z,303
2023-02-04T01:05:25.662Z,303
2023-02-04T01:05:58.005Z,271
2023-02-04T01:06:29.183Z,271
2023-02-04T01:07:02.442Z,271
2023-02-04T01:07:33.132Z,271
2023-02-04T01:08:06.267Z,280
2023-02-04T01:08:37.269Z,287
2023-02-04T01:09:10.267Z,271
2023-02-04T01:09:41.184Z,271
2023-02-04T01:10:14.385Z,271
2023-02-04T01:10:45.266Z,271
2023-02-04T01:11:17.920Z,271
2023-02-04T01:11:49.216Z,271
2023-02-04T01:12:22.171Z,280
2023-02-04T01:12:53.404Z,280
2023-02-04T01:13:26.014Z,277
2023-02-04T01:13:57.260Z,277
2023-02-04T01:14:30.207Z,277
2023-02-04T01:15:02.691Z,269
2023-02-04T01:15:35.125Z,269
2023-02-04T01:16:05.382Z,269
2023-02-04T01:16:38.201Z,312
2023-02-04T01:17:09.154Z,312
2023-02-04T01:17:42.110Z,281
2023-02-04T01:18:13.227Z,277
2023-02-04T01:18:46.102Z,268
2023-02-04T01:19:17.438Z,273
2023-02-04T01:19:50.126Z,258
2023-02-04T01:20:21.415Z,273
2023-02-04T01:20:54.037Z,273
2023-02-04T01:21:25.211Z,273
2023-02-04T01:21:58.149Z,324
2023-02-04T01:22:29.190Z,273
2023-02-04T01:23:02.301Z,273
2023-02-04T01:23:33.286Z,273
2023-02-04T01:24:06.290Z,324
2023-02-04T01:24:37.155Z,294
2023-02-04T01:25:10.319Z,283
2023-02-04T01:25:41.394Z,278
2023-02-04T01:26:13.966Z,278
2023-02-04T01:26:45.202Z,275
2023-02-04T01:27:18.365Z,275
2023-02-04T01:27:49.482Z,272
2023-02-04T01:28:21.965Z,278
2023-02-04T01:28:53.345Z,272
2023-02-04T01:29:26.109Z,272
2023-02-04T01:29:57.177Z,272
2023-02-04T01:30:31.876Z,277
2023-02-04T01:31:01.382Z,277
2023-02-04T01:31:34.232Z,275
2023-02-04T01:32:05.251Z,275
2023-02-04T01:32:38.260Z,275
2023-02-04T01:33:09.206Z,275
2023-02-04T01:33:42.092Z,314
2023-02-04T01:34:13.272Z,287
2023-02-04T01:34:46.996Z,307
2023-02-04T01:35:17.370Z,307
2023-02-04T01:35:50.972Z,307
2023-02-04T01:36:21.324Z,297
2023-02-04T01:36:55.054Z,321
2023-02-04T01:37:25.207Z,304
2023-02-04T01:37:58.081Z,308
2023-02-04T01:38:29.376Z,308
2023-02-04T01:39:02.121Z,277
2023-02-04T01:39:33.279Z,277
2023-02-04T01:40:06.117Z,336
2023-02-04T01:40:37.184Z,327
2023-02-04T01:41:10.076Z,295
2023-02-04T01:41:41.266Z,295
2023-02-04T01:42:13.952Z,327
2023-02-04T01:42:45.158Z,295
2023-02-04T01:43:18.402Z,327
2023-02-04T01:43:49.250Z,327
2023-02-04T01:44:21.890Z,327
2023-02-04T01:44:53.444Z,327
2023-02-04T01:45:27.389Z,327
2023-02-04T01:45:57.360Z,327
2023-02-04T01:46:30.121Z,327
2023-02-04T01:47:01.425Z,327
2023-02-04T01:47:34.252Z,327
2023-02-04T01:48:05.291Z,327
2023-02-04T01:48:38.124Z,327
2023-02-04T01:49:09.350Z,327
2023-02-04T01:49:43.047Z,310
2023-02-04T01:50:13.520Z,310
2023-02-04T01:50:46.223Z,310
2023-02-04T01:51:17.328Z,310
2023-02-04T01:51:49.977Z,305
2023-02-04T01:52:21.173Z,310
2023-02-04T01:52:54.240Z,312
2023-02-04T01:53:25.276Z,312
2023-02-04T01:53:58.166Z,310
2023-02-04T01:54:29.342Z,310
2023-02-04T01:55:02.656Z,317
2023-02-04T01:55:33.142Z,317
2023-02-04T01:56:06.189Z,317
2023-02-04T01:56:37.249Z,304
2023-02-04T01:57:10.080Z,304
2023-02-04T01:57:41.215Z,312
2023-02-04T01:58:14.297Z,319
2023-02-04T01:58:45.327Z,310
2023-02-04T01:59:18.023Z,310
2023-02-04T01:59:49.237Z,310
2023-02-04T02:00:23.976Z,310
2023-02-04T02:00:53.353Z,310
2023-02-04T02:01:27.213Z,236
2023-02-04T02:01:57.281Z,260
2023-02-04T02:02:30.268Z,318
2023-02-04T02:03:01.190Z,290
2023-02-04T02:03:34.266Z,290
2023-02-04T02:04:05.286Z,322
2023-02-04T02:04:37.963Z,275
2023-02-04T02:05:09.487Z,322
2023-02-04T02:05:41.973Z,283
2023-02-04T02:06:13.297Z,278
2023-02-04T02:06:46.238Z,278
2023-02-04T02:07:17.207Z,278
2023-02-04T02:07:50.430Z,283
2023-02-04T02:08:21.229Z,283
2023-02-04T02:08:54.096Z,279
2023-02-04T02:09:25.227Z,326
2023-02-04T02:09:58.210Z,326
2023-02-04T02:10:29.766Z,283
2023-02-04T02:11:02.192Z,283
2023-02-04T02:11:33.255Z,283
2023-02-04T02:12:06.173Z,283
2023-02-04T02:12:37.169Z,283
2023-02-04T02:13:10.209Z,276
2023-02-04T02:13:41.364Z,276
2023-02-04T02:14:14.025Z,276
2023-02-04T02:14:45.225Z,283
2023-02-04T02:15:19.265Z,243
2023-02-04T02:15:49.320Z,277
2023-02-04T02:16:22.423Z,305
2023-02-04T02:16:53.360Z,305
2023-02-04T02:17:26.104Z,258
2023-02-04T02:17:57.188Z,274
2023-02-04T02:18:30.182Z,296
2023-02-04T02:19:01.339Z,296
2023-02-04T02:19:34.146Z,296
2023-02-04T02:20:05.409Z,296
2023-02-04T02:20:38.123Z,268
2023-02-04T02:21:09.120Z,262
2023-02-04T02:21:42.000Z,268
2023-02-04T02:22:13.266Z,258
2023-02-04T02:22:46.287Z,266
2023-02-04T02:23:17.158Z,266
2023-02-04T02:23:50.050Z,266
2023-02-04T02:24:21.245Z,266
2023-02-04T02:24:54.027Z,266
2023-02-04T02:25:25.525Z,251
2023-02-04T02:25:58.034Z,251
2023-02-04T02:26:29.416Z,266
2023-02-04T02:27:02.254Z,266
2023-02-04T02:27:33.289Z,266
2023-02-04T02:28:06.428Z,264
2023-02-04T02:28:37.200Z,264
2023-02-04T02:29:10.010Z,264
2023-02-04T02:29:41.289Z,264
2023-02-04T02:30:15.011Z,264
2023-02-04T02:30:45.372Z,264
2023-02-04T02:31:18.266Z,266
2023-02-04T02:31:49.384Z,266
2023-02-04T02:32:22.084Z,270
2023-02-04T02:32:53.352Z,272
2023-02-04T02:33:09.424Z,272
2023-02-04T02:33:41.212Z,270
2023-02-04T02:34:13.272Z,270
2023-02-04T02:34:45.275Z,270
2023-02-04T02:35:17.502Z,276
2023-02-04T02:35:50.167Z,276
2023-02-04T02:36:21.323Z,276
2023-02-04T02:36:53.907Z,273
2023-02-04T02:37:25.225Z,273
2023-02-04T02:37:58.074Z,273
2023-02-04T02:38:29.255Z,273
2023-02-04T02:39:02.208Z,269
2023-02-04T02:39:33.232Z,269
2023-02-04T02:40:06.533Z,277
2023-02-04T02:40:37.235Z,277
2023-02-04T02:41:09.997Z,269
2023-02-04T02:41:41.270Z,273
2023-02-04T02:42:14.274Z,273
2023-02-04T02:42:45.247Z,273
2023-02-04T02:43:18.071Z,289
2023-02-04T02:43:49.399Z,281
2023-02-04T02:44:22.085Z,289
2023-02-04T02:44:53.248Z,298
2023-02-04T02:45:30.160Z,298
2023-02-04T02:45:57.490Z,297
2023-02-04T02:46:29.943Z,297
2023-02-04T02:47:01.292Z,297
2023-02-04T02:47:34.208Z,297
2023-02-04T02:48:05.200Z,297
2023-02-04T02:48:38.264Z,312
2023-02-04T02:49:09.224Z,297
2023-02-04T02:49:42.058Z,297
2023-02-04T02:50:13.461Z,297
2023-02-04T02:50:46.153Z,281
2023-02-04T02:51:17.310Z,275
2023-02-04T02:51:50.019Z,269
2023-02-04T02:52:21.157Z,267
2023-02-04T02:52:54.214Z,267
2023-02-04T02:53:25.420Z,267
2023-02-04T02:54:01.017Z,270
2023-02-04T02:54:29.218Z,270
2023-02-04T02:55:02.680Z,270
2023-02-04T02:55:33.163Z,270
2023-02-04T02:56:06.197Z,270
2023-02-04T02:56:37.347Z,267
2023-02-04T02:57:11.187Z,270
2023-02-04T02:57:41.267Z,270
2023-02-04T02:58:14.182Z,270
2023-02-04T02:58:45.247Z,291
2023-02-04T02:59:18.944Z,272
2023-02-04T02:59:49.124Z,279
2023-02-04T03:00:24.031Z,278
2023-02-04T03:00:53.555Z,279
2023-02-04T03:01:26.045Z,279
2023-02-04T03:01:57.248Z,279
2023-02-04T03:02:30.178Z,279
2023-02-04T03:03:01.232Z,279
2023-02-04T03:03:34.161Z,279
2023-02-04T03:04:05.226Z,278
2023-02-04T03:04:37.835Z,278
2023-02-04T03:05:09.523Z,278
2023-02-04T03:05:42.184Z,278
2023-02-04T03:06:13.415Z,278
2023-02-04T03:06:46.056Z,278
2023-02-04T03:07:17.320Z,278
2023-02-04T03:07:51.169Z,278
2023-02-04T03:08:21.160Z,278
2023-02-04T03:08:54.119Z,304
2023-02-04T03:09:25.303Z,318
2023-02-04T03:09:58.163Z,304
2023-02-04T03:10:29.951Z,304
2023-02-04T03:11:02.275Z,304
2023-02-04T03:11:33.288Z,304
2023-02-04T03:12:06.265Z,304
2023-02-04T03:12:37.287Z,304
2023-02-04T03:13:10.984Z,285
2023-02-04T03:13:41.498Z,285
2023-02-04T03:14:13.932Z,304
2023-02-04T03:14:45.206Z,285
2023-02-04T03:15:19.268Z,317
2023-02-04T03:15:49.269Z,331
2023-02-04T03:16:22.190Z,296
2023-02-04T03:16:53.366Z,304
2023-02-04T03:17:26.347Z,270
2023-02-04T03:17:57.226Z,279
2023-02-04T03:18:30.308Z,273
2023-02-04T03:19:01.443Z,273
2023-02-04T03:19:33.989Z,273
2023-02-04T03:20:05.379Z,273
2023-02-04T03:20:38.142Z,273
2023-02-04T03:21:09.247Z,280
2023-02-04T03:21:45.522Z,280
2023-02-04T03:22:13.351Z,305
2023-02-04T03:22:46.280Z,305
2023-02-04T03:23:17.271Z,281
2023-02-04T03:23:50.121Z,248
2023-02-04T03:24:21.349Z,272
2023-02-04T03:24:54.390Z,272
2023-02-04T03:25:25.579Z,290
2023-02-04T03:25:58.127Z,276
2023-02-04T03:26:29.416Z,276
2023-02-04T03:27:02.126Z,276
2023-02-04T03:27:33.287Z,277
2023-02-04T03:28:06.619Z,277
2023-02-04T03:28:37.359Z,277
2023-02-04T03:29:10.217Z,313
2023-02-04T03:29:41.319Z,281
2023-02-04T03:30:15.416Z,281
2023-02-04T03:30:45.282Z,281
2023-02-04T03:31:18.229Z,313
2023-02-04T03:31:49.364Z,281
2023-02-04T03:32:24.122Z,274
2023-02-04T03:32:53.209Z,282
2023-02-04T03:33:09.405Z,282
2023-02-04T03:33:41.223Z,282
2023-02-04T03:34:13.285Z,282
2023-02-04T03:34:45.390Z,282
2023-02-04T03:35:17.500Z,282
2023-02-04T03:35:50.067Z,282
2023-02-04T03:36:21.292Z,311
2023-02-04T03:36:54.070Z,311
2023-02-04T03:37:25.183Z,300
2023-02-04T03:37:41.357Z,300
2023-02-04T03:38:13.087Z,300
2023-02-04T03:38:45.271Z,300
2023-02-04T03:39:17.324Z,300
2023-02-04T03:39:49.185Z,300
2023-02-04T03:40:23.414Z,284
2023-02-04T03:40:53.278Z,307
2023-02-04T03:41:26.159Z,307
2023-02-04T03:41:57.227Z,307
2023-02-04T03:42:30.164Z,307
2023-02-04T03:43:01.386Z,307
2023-02-04T03:43:34.198Z,299
2023-02-04T03:44:05.260Z,299
2023-02-04T03:44:38.104Z,292
2023-02-04T03:45:10.161Z,292
2023-02-04T03:45:45.648Z,298
2023-02-04T03:46:13.278Z,303
2023-02-04T03:46:46.081Z,292
2023-02-04T03:47:17.141Z,292
2023-02-04T03:47:50.186Z,256
2023-02-04T03:48:21.311Z,292
2023-02-04T03:48:54.279Z,267
2023-02-04T03:49:25.282Z,261
2023-02-04T03:49:59.086Z,261
2023-02-04T03:50:30.116Z,261
2023-02-04T03:51:02.085Z,291
2023-02-04T03:51:33.297Z,294
2023-02-04T03:52:06.242Z,294
2023-02-04T03:52:37.519Z,294
2023-02-04T03:53:10.989Z,294
2023-02-04T03:53:41.389Z,294
2023-02-04T03:54:14.844Z,294
2023-02-04T03:54:45.226Z,294
2023-02-04T03:55:18.364Z,289
2023-02-04T03:55:49.324Z,294
2023-02-04T03:56:21.974Z,270
2023-02-04T03:56:53.343Z,290
2023-02-04T03:57:09.472Z,290
2023-02-04T03:57:41.240Z,290
2023-02-04T03:58:13.342Z,289
2023-02-04T03:58:45.273Z,290
2023-02-04T03:59:17.145Z,290
2023-02-04T03:59:50.006Z,290
2023-02-04T04:00:22.462Z,276
2023-02-04T04:00:54.336Z,283
2023-02-04T04:01:25.225Z,283
2023-02-04T04:01:57.929Z,283
2023-02-04T04:02:29.276Z,283
2023-02-04T04:03:02.090Z,309
2023-02-04T04:03:33.256Z,284
2023-02-04T04:04:06.004Z,284
2023-02-04T04:04:37.485Z,284
2023-02-04T04:05:10.372Z,284
2023-02-04T04:05:41.311Z,256
2023-02-04T04:06:14.175Z,303
2023-02-04T04:06:45.254Z,303
2023-02-04T04:07:18.090Z,284
2023-02-04T04:07:49.477Z,310
2023-02-04T04:08:22.200Z,304
2023-02-04T04:08:53.370Z,304
2023-02-04T04:09:26.138Z,304
2023-02-04T04:09:57.443Z,310
2023-02-04T04:10:30.675Z,310
2023-02-04T04:11:01.362Z,315
2023-02-04T04:11:34.207Z,310
2023-02-04T04:12:05.245Z,297
2023-02-04T04:12:38.011Z,297
2023-02-04T04:13:09.435Z,297
2023-02-04T04:13:42.111Z,297
2023-02-04T04:14:13.281Z,283
2023-02-04T04:14:46.042Z,271
2023-02-04T04:15:18.331Z,301
2023-02-04T04:15:50.228Z,301
2023-02-04T04:16:21.298Z,301
2023-02-04T04:16:54.099Z,301
2023-02-04T04:17:25.241Z,301
2023-02-04T04:17:58.127Z,301
2023-02-04T04:18:29.402Z,301
2023-02-04T04:19:03.788Z,301
2023-02-04T04:19:33.194Z,301
2023-02-04T04:20:06.295Z,249
2023-02-04T04:20:37.442Z,249
2023-02-04T04:21:10.030Z,249
2023-02-04T04:21:41.282Z,277
2023-02-04T04:22:14.247Z,269
2023-02-04T04:22:45.350Z,277
2023-02-04T04:23:18.063Z,277
2023-02-04T04:23:49.472Z,275
2023-02-04T04:24:22.092Z,275
2023-02-04T04:24:53.188Z,275
2023-02-04T04:25:09.599Z,275
2023-02-04T04:25:26.268Z,309
2023-02-04T04:25:57.561Z,280
2023-02-04T04:26:30.080Z,280
2023-02-04T04:27:01.414Z,280
2023-02-04T04:27:38.135Z,280
2023-02-04T04:28:05.432Z,280
2023-02-04T04:28:37.364Z,280
2023-02-04T04:29:09.362Z,280
2023-02-04T04:29:41.440Z,280
2023-02-04T04:30:14.111Z,280
2023-02-04T04:30:45.370Z,280
2023-02-04T04:31:17.427Z,280
2023-02-04T04:31:49.306Z,280
2023-02-04T04:32:22.069Z,282
2023-02-04T04:32:53.342Z,285
2023-02-04T04:33:25.946Z,276
2023-02-04T04:33:57.186Z,285
2023-02-04T04:34:30.116Z,276
2023-02-04T04:35:01.682Z,343
2023-02-04T04:35:33.970Z,276
2023-02-04T04:36:05.274Z,276
2023-02-04T04:36:38.141Z,276
2023-02-04T04:37:09.295Z,277
2023-02-04T04:37:42.976Z,269
2023-02-04T04:38:13.359Z,269
2023-02-04T04:38:46.076Z,269
2023-02-04T04:39:17.150Z,269
2023-02-04T04:39:50.068Z,285
2023-02-04T04:40:21.655Z,285
2023-02-04T04:40:54.021Z,269
2023-02-04T04:41:25.285Z,269
2023-02-04T04:41:58.771Z,269
2023-02-04T04:42:29.204Z,264
2023-02-04T04:43:02.963Z,264
2023-02-04T04:43:33.290Z,272
2023-02-04T04:44:06.154Z,272
2023-02-04T04:44:37.252Z,272
2023-02-04T04:45:11.122Z,272
2023-02-04T04:45:41.482Z,272
2023-02-04T04:46:14.138Z,272
2023-02-04T04:46:45.411Z,272
2023-02-04T04:47:18.181Z,272
2023-02-04T04:47:49.423Z,281
2023-02-04T04:48:22.240Z,281
2023-02-04T04:48:53.404Z,284
2023-02-04T04:49:26.133Z,289
2023-02-04T04:49:57.200Z,289
2023-02-04T04:50:30.991Z,289
2023-02-04T04:51:01.433Z,289
2023-02-04T04:51:34.264Z,289
2023-02-04T04:52:05.245Z,289
2023-02-04T04:52:38.258Z,275
2023-02-04T04:53:09.391Z,275
2023-02-04T04:53:42.017Z,289
2023-02-04T04:54:13.224Z,289
2023-02-04T04:54:46.092Z,289
2023-02-04T04:55:17.600Z,275
2023-02-04T04:55:50.250Z,270
2023-02-04T04:56:21.386Z,286
2023-02-04T04:56:54.391Z,298
2023-02-04T04:57:25.232Z,298
2023-02-04T04:58:01.103Z,298
2023-02-04T04:58:29.316Z,298
2023-02-04T04:59:03.270Z,298
2023-02-04T04:59:33.253Z,305
2023-02-04T05:00:07.531Z,298
2023-02-04T05:00:37.622Z,261
2023-02-04T05:01:10.053Z,270
2023-02-04T05:01:41.270Z,294
2023-02-04T05:02:14.245Z,292
2023-02-04T05:02:45.251Z,292
2023-02-04T05:03:18.154Z,292
2023-02-04T05:03:49.320Z,254
2023-02-04T05:04:22.262Z,276
2023-02-04T05:04:53.376Z,276
2023-02-04T05:05:09.838Z,276
2023-02-04T05:05:41.219Z,276
2023-02-04T05:06:13.333Z,276
2023-02-04T05:06:45.351Z,276
2023-02-04T05:07:17.424Z,276
2023-02-04T05:07:49.483Z,267
2023-02-04T05:08:21.159Z,267
2023-02-04T05:08:53.397Z,267
2023-02-04T05:09:25.218Z,263
2023-02-04T05:09:58.398Z,266
2023-02-04T05:10:30.127Z,271
2023-02-04T05:11:02.138Z,271
2023-02-04T05:11:33.292Z,266
2023-02-04T05:12:06.247Z,266
2023-02-04T05:12:37.366Z,266
2023-02-04T05:13:10.211Z,266
2023-02-04T05:13:41.373Z,266
2023-02-04T05:14:14.095Z,266
2023-02-04T05:14:45.388Z,271
2023-02-04T05:15:19.180Z,261
2023-02-04T05:15:49.381Z,271
2023-02-04T05:16:22.214Z,269
2023-02-04T05:16:53.254Z,282
2023-02-04T05:17:28.470Z,271
2023-02-04T05:17:57.303Z,271
2023-02-04T05:18:30.149Z,271
2023-02-04T05:19:01.239Z,278
2023-02-04T05:19:34.197Z,278
2023-02-04T05:20:05.515Z,278
2023-02-04T05:20:38.395Z,295
2023-02-04T05:21:09.271Z,295
2023-02-04T05:21:42.164Z,284
2023-02-04T05:22:13.392Z,314
2023-02-04T05:22:46.184Z,286
2023-02-04T05:23:17.325Z,278
2023-02-04T05:23:50.099Z,314
2023-02-04T05:24:21.264Z,314
2023-02-04T05:24:54.077Z,281
2023-02-04T05:25:25.662Z,281
2023-02-04T05:25:58.358Z,308
2023-02-04T05:26:31.010Z,303
2023-02-04T05:27:02.294Z,303
2023-02-04T05:27:33.349Z,302
2023-02-04T05:28:06.205Z,283
2023-02-04T05:28:37.315Z,302
2023-02-04T05:29:10.803Z,285
2023-02-04T05:29:41.421Z,307
2023-02-04T05:30:15.871Z,311
2023-02-04T05:30:45.512Z,311
2023-02-04T05:31:18.340Z,311
2023-02-04T05:31:49.405Z,285
2023-02-04T05:32:23.296Z,299
2023-02-04T05:32:53.318Z,299
2023-02-04T05:33:26.224Z,316
2023-02-04T05:33:57.193Z,313
2023-02-04T05:34:30.340Z,313
2023-02-04T05:35:01.677Z,313
2023-02-04T05:35:34.004Z,313
2023-02-04T05:36:05.285Z,313
2023-02-04T05:36:38.107Z,286
2023-02-04T05:37:09.333Z,316
2023-02-04T05:37:42.177Z,286
2023-02-04T05:38:13.444Z,316
2023-02-04T05:38:47.132Z,316
2023-02-04T05:39:17.318Z,316
2023-02-04T05:39:50.225Z,273
2023-02-04T05:40:21.604Z,331
2023-02-04T05:40:53.988Z,318
2023-02-04T05:41:25.178Z,318
2023-02-04T05:41:41.420Z,318
2023-02-04T05:42:13.243Z,318
2023-02-04T05:42:45.338Z,318
2023-02-04T05:43:17.415Z,318
2023-02-04T05:43:49.215Z,318
2023-02-04T05:44:22.183Z,326
2023-02-04T05:44:53.408Z,326
2023-02-04T05:45:27.423Z,315
2023-02-04T05:45:57.433Z,318
2023-02-04T05:46:31.170Z,315
2023-02-04T05:47:01.347Z,317
2023-02-04T05:47:36.476Z,322
2023-02-04T05:48:05.233Z,324
2023-02-04T05:48:38.375Z,324
2023-02-04T05:49:09.365Z,324
2023-02-04T05:49:42.121Z,324
2023-02-04T05:50:13.612Z,324
2023-02-04T05:50:46.361Z,324
2023-02-04T05:51:17.280Z,322
2023-02-04T05:51:50.181Z,322
2023-02-04T05:52:21.360Z,322
2023-02-04T05:52:54.337Z,322
2023-02-04T05:53:26.198Z,324
2023-02-04T05:53:59.154Z,324
2023-02-04T05:54:29.287Z,317
2023-02-04T05:55:02.477Z,317
2023-02-04T05:55:33.332Z,317
2023-02-04T05:56:06.478Z,317
2023-02-04T05:56:37.282Z,317
2023-02-04T05:57:10.211Z,322
2023-02-04T05:57:41.388Z,334
2023-02-04T05:58:14.056Z,334
2023-02-04T05:58:45.247Z,334
2023-02-04T05:59:18.276Z,334
2023-02-04T05:59:49.394Z,334
2023-02-04T06:00:23.451Z,334
2023-02-04T06:00:53.562Z,334
2023-02-04T06:01:26.273Z,334
2023-02-04T06:01:57.395Z,334
2023-02-04T06:02:30.229Z,334
2023-02-04T06:03:01.537Z,350
2023-02-04T06:03:34.656Z,350
2023-02-04T06:04:05.449Z,350
2023-02-04T06:04:38.539Z,343
2023-02-04T06:05:09.820Z,343
2023-02-04T06:05:42.271Z,11
2023-02-04T06:06:13.529Z,316
2023-02-04T06:06:46.395Z,348
2023-02-04T06:07:17.574Z,343
2023-02-04T06:07:50.375Z,334
2023-02-04T06:08:21.496Z,334
2023-02-04T06:08:54.414Z,334
2023-02-04T06:09:25.262Z,334
2023-02-04T06:10:00.296Z,334
2023-02-04T06:10:30.100Z,334
2023-02-04T06:11:02.159Z,334
2023-02-04T06:11:33.350Z,343
2023-02-04T06:12:06.382Z,351
2023-02-04T06:12:37.460Z,336
2023-02-04T06:13:10.331Z,336
2023-02-04T06:13:41.350Z,334
2023-02-04T06:14:15.297Z,334
2023-02-04T06:14:45.261Z,334
2023-02-04T06:15:19.016Z,334
2023-02-04T06:15:49.562Z,334
2023-02-04T06:16:22.115Z,334
2023-02-04T06:16:53.329Z,336
2023-02-04T06:17:09.392Z,336
2023-02-04T06:17:41.255Z,334
2023-02-04T06:18:13.322Z,334
2023-02-04T06:18:45.375Z,334
2023-02-04T06:19:17.209Z,334
2023-02-04T06:19:50.809Z,334
2023-02-04T06:20:21.572Z,334
2023-02-04T06:20:54.184Z,330
2023-02-04T06:21:25.250Z,330
2023-02-04T06:21:58.111Z,330
2023-02-04T06:22:29.556Z,322
2023-02-04T06:23:04.061Z,322
2023-02-04T06:23:33.369Z,322
2023-02-04T06:24:06.082Z,322
2023-02-04T06:24:37.389Z,322
2023-02-04T06:25:11.338Z,322
2023-02-04T06:25:41.301Z,322
2023-02-04T06:26:14.024Z,322
2023-02-04T06:26:45.222Z,322
2023-02-04T06:27:18.195Z,322
2023-02-04T06:27:49.422Z,316
2023-02-04T06:28:22.452Z,316
2023-02-04T06:28:53.306Z,310
2023-02-04T06:29:27.095Z,317
2023-02-04T06:29:57.347Z,310
2023-02-04T06:30:31.821Z,337
2023-02-04T06:31:01.497Z,310
2023-02-04T06:31:34.466Z,307
2023-02-04T06:32:05.336Z,345
2023-02-04T06:32:39.108Z,337
2023-02-04T06:33:09.385Z,337
2023-02-04T06:33:42.270Z,337
2023-02-04T06:34:13.167Z,337
2023-02-04T06:34:46.097Z,337
2023-02-04T06:35:17.596Z,337
2023-02-04T06:35:51.152Z,337
2023-02-04T06:36:21.210Z,337
2023-02-04T06:36:54.157Z,337
2023-02-04T06:37:25.477Z,337
2023-02-04T06:37:58.153Z,337
2023-02-04T06:38:29.344Z,337
2023-02-04T06:39:02.266Z,330
2023-02-04T06:39:33.224Z,330
2023-02-04T06:40:06.263Z,323
2023-02-04T06:40:37.348Z,330
2023-02-04T06:41:11.154Z,334
2023-02-04T06:41:41.287Z,334
2023-02-04T06:42:14.325Z,330
2023-02-04T06:42:45.431Z,334
2023-02-04T06:43:18.001Z,330
2023-02-04T06:43:49.343Z,330
2023-02-04T06:44:22.120Z,342
2023-02-04T06:44:53.358Z,329
2023-02-04T06:45:27.476Z,329
2023-02-04T06:45:57.565Z,329
2023-02-04T06:46:30.237Z,342
2023-02-04T06:47:01.372Z,329
2023-02-04T06:47:34.117Z,342
2023-02-04T06:48:05.332Z,342
2023-02-04T06:48:38.270Z,342
2023-02-04T06:49:09.228Z,342
2023-02-04T06:49:42.173Z,342
2023-02-04T06:50:13.632Z,342
2023-02-04T06:50:46.173Z,342
2023-02-04T06:51:17.253Z,342
2023-02-04T06:51:50.218Z,342
2023-02-04T06:52:21.416Z,36
2023-02-04T06:52:54.139Z,336
2023-02-04T06:53:25.314Z,336
2023-02-04T06:53:58.391Z,349
2023-02-04T06:54:29.207Z,9
2023-02-04T06:55:02.478Z,9
2023-02-04T06:55:33.302Z,349
2023-02-04T06:56:06.153Z,24
2023-02-04T06:56:37.300Z,17
2023-02-04T06:57:10.246Z,17
2023-02-04T06:57:41.493Z,17
2023-02-04T06:58:14.143Z,17
2023-02-04T06:58:45.636Z,17
2023-02-04T06:59:19.596Z,17
2023-02-04T06:59:49.783Z,17
2023-02-04T07:00:24.051Z,18
2023-02-04T07:00:53.911Z,18
2023-02-04T07:01:26.492Z,18
2023-02-04T07:01:57.692Z,18
2023-02-04T07:02:30.496Z,18
2023-02-04T07:03:01.752Z,18
2023-02-04T07:03:34.484Z,9
2023-02-04T07:04:05.658Z,18
2023-02-04T07:04:39.278Z,18
2023-02-04T07:05:09.802Z,18
2023-02-04T07:05:42.412Z,18
2023-02-04T07:06:13.724Z,18
2023-02-04T07:06:47.497Z,17
2023-02-04T07:07:17.572Z,17
2023-02-04T07:07:50.768Z,17
2023-02-04T07:08:21.733Z,7
2023-02-04T07:08:54.578Z,18
2023-02-04T07:09:25.930Z,18
2023-02-04T07:09:58.620Z,15
2023-02-04T07:10:30.012Z,14
2023-02-04T07:11:02.439Z,14
2023-02-04T07:11:33.643Z,14
2023-02-04T07:12:06.472Z,14
2023-02-04T07:12:37.511Z,14
2023-02-04T07:13:11.322Z,14
2023-02-04T07:13:41.553Z,14
2023-02-04T07:14:14.408Z,15
2023-02-04T07:14:45.525Z,10
2023-02-04T07:15:19.513Z,10
2023-02-04T07:15:49.720Z,10
2023-02-04T07:16:22.309Z,15
2023-02-04T07:16:53.671Z,15
2023-02-04T07:17:26.573Z,15
2023-02-04T07:17:57.591Z,15
2023-02-04T07:18:30.458Z,13
2023-02-04T07:19:01.726Z,13